createdAt,value
2023-05-08T00:01:53.302Z,88.13
2023-05-08T00:04:21.594Z,88.31
2023-05-08T00:06:51.727Z,87.23
2023-05-08T00:09:21.595Z,86.03
2023-05-08T00:11:49.565Z,85.02
2023-05-08T00:14:17.911Z,84.10
2023-05-08T00:16:45.816Z,85.95
2023-05-08T00:19:14.164Z,86.92
2023-05-08T00:21:42.345Z,85.25
2023-05-08T00:24:10.821Z,87.10
2023-05-08T00:26:38.726Z,86.65
2023-05-08T00:29:07.562Z,87.69
2023-05-08T00:31:35.597Z,89.05
2023-05-08T00:34:03.991Z,88.95
2023-05-08T00:36:32.505Z,87.90
2023-05-08T00:39:00.812Z,88.19
2023-05-08T00:41:28.788Z,87.62
2023-05-08T00:43:57.009Z,87.51
2023-05-08T00:46:25.296Z,88.25
2023-05-08T00:48:53.961Z,88.84
2023-05-08T00:51:23.332Z,87.57
2023-05-08T00:53:51.781Z,88.70
2023-05-08T00:56:21.530Z,89.34
2023-05-08T00:58:50.963Z,89.25
2023-05-08T01:01:19.197Z,89.66
2023-05-08T01:03:48.459Z,90.51
2023-05-08T01:06:16.646Z,89.28
2023-05-08T01:08:46.295Z,92.17
2023-05-08T01:11:31.645Z,92.76
2023-05-08T01:14:21.755Z,90.73
2023-05-08T01:17:20.543Z,91.78
2023-05-08T01:20:19.509Z,91.74
2023-05-08T01:23:08.926Z,91.45
2023-05-08T01:26:07.567Z,90.31
2023-05-08T01:29:23.477Z,92.77
2023-05-08T01:32:10.835Z,91.55
2023-05-08T01:34:46.646Z,93.85
2023-05-08T01:37:17.540Z,91.88
2023-05-08T01:39:57.766Z,93.32
2023-05-08T01:42:29.095Z,91.29
2023-05-08T01:45:03.887Z,90.51
2023-05-08T01:47:37.847Z,91.29
2023-05-08T01:50:23.238Z,88.74
2023-05-08T01:53:03.828Z,88.45
2023-05-08T01:55:36.808Z,87.96
2023-05-08T01:58:09.149Z,89.76
2023-05-08T02:00:41.138Z,89.52
2023-05-08T02:03:12.321Z,87.75
2023-05-08T02:05:41.580Z,88.35
2023-05-08T02:08:12.050Z,88.52
2023-05-08T02:10:41.895Z,90.21
2023-05-08T02:13:13.792Z,89.93
2023-05-08T02:15:43.403Z,88.93
2023-05-08T02:18:13.731Z,87.65
2023-05-08T02:20:42.450Z,93.05
2023-05-08T02:23:11.887Z,97.21
2023-05-08T02:25:41.752Z,100.00
2023-05-08T02:28:11.210Z,100.00
2023-05-08T02:30:42.301Z,100.00
2023-05-08T02:33:12.272Z,100.00
2023-05-08T02:35:43.952Z,100.00
2023-05-08T02:38:14.553Z,100.00
2023-05-08T02:40:46.752Z,100.00
2023-05-08T02:43:15.111Z,100.00
2023-05-08T02:45:50.820Z,100.00
2023-05-08T02:48:29.280Z,100.00
2023-05-08T02:51:11.358Z,100.00
2023-05-08T02:53:48.540Z,100.00
2023-05-08T02:56:26.753Z,100.00
2023-05-08T02:59:17.129Z,100.00
2023-05-08T03:01:52.801Z,100.00
2023-05-08T03:04:35.189Z,100.00
2023-05-08T03:07:04.934Z,100.00
2023-05-08T03:09:42.106Z,100.00
2023-05-08T03:12:25.047Z,100.00
2023-05-08T03:14:56.202Z,100.00
2023-05-08T03:17:26.586Z,100.00
2023-05-08T03:20:01.124Z,100.00
2023-05-08T03:22:30.729Z,100.00
2023-05-08T03:25:03.063Z,100.00
2023-05-08T03:27:33.467Z,100.00
2023-05-08T03:30:03.697Z,100.00
2023-05-08T03:32:38.118Z,100.00
2023-05-08T03:35:09.762Z,100.00
2023-05-08T03:37:38.296Z,100.00
2023-05-08T03:40:08.722Z,100.00
2023-05-08T03:42:37.784Z,100.00
2023-05-08T03:45:10.173Z,100.00
2023-05-08T03:47:39.111Z,100.00
2023-05-08T03:50:09.322Z,100.00
2023-05-08T03:52:38.764Z,100.00
2023-05-08T03:55:08.138Z,100.00
2023-05-08T03:57:50.728Z,100.00
2023-05-08T04:00:37.927Z,100.00
2023-05-08T04:03:35.058Z,100.00
2023-05-08T04:06:28.773Z,100.00
2023-05-08T04:09:08.071Z,100.00
2023-05-08T04:11:44.352Z,100.00
2023-05-08T04:14:19.564Z,100.00
2023-05-08T04:16:54.020Z,100.00
2023-05-08T04:19:28.992Z,100.00
2023-05-08T04:22:01.686Z,100.00
2023-05-08T04:24:32.369Z,100.00
2023-05-08T04:27:02.929Z,100.00
2023-05-08T04:29:33.975Z,100.00
2023-05-08T04:32:05.954Z,100.00
2023-05-08T04:34:36.515Z,100.00
2023-05-08T04:37:07.584Z,100.00
2023-05-08T04:39:36.039Z,100.00
2023-05-08T04:42:05.033Z,100.00
2023-05-08T04:44:35.556Z,100.00
2023-05-08T04:47:03.996Z,100.00
2023-05-08T04:49:32.321Z,100.00
2023-05-08T04:52:01.447Z,100.00
2023-05-08T04:54:30.196Z,100.00
2023-05-08T04:56:58.605Z,100.00
2023-05-08T04:59:27.853Z,100.00
2023-05-08T05:02:02.031Z,100.00
2023-05-08T05:04:31.421Z,100.00
2023-05-08T05:07:01.954Z,100.00
2023-05-08T05:09:30.347Z,100.00
2023-05-08T05:11:58.693Z,100.00
2023-05-08T05:14:26.675Z,100.00
2023-05-08T05:16:54.981Z,100.00
2023-05-08T05:19:22.995Z,100.00
2023-05-08T05:21:52.119Z,100.00
2023-05-08T05:24:20.150Z,100.00
2023-05-08T05:26:48.529Z,100.00
2023-05-08T05:29:17.430Z,100.00
2023-05-08T05:31:45.948Z,100.00
2023-05-08T05:34:14.357Z,100.00
2023-05-08T05:36:43.267Z,100.00
2023-05-08T05:39:11.269Z,100.00
2023-05-08T05:41:42.467Z,100.00
2023-05-08T05:44:11.708Z,100.00
2023-05-08T05:46:42.122Z,100.00
2023-05-08T05:49:12.803Z,100.00
2023-05-08T05:51:41.852Z,100.00
2023-05-08T05:54:10.117Z,100.00
2023-05-08T05:56:38.477Z,100.00
2023-05-08T05:59:06.574Z,100.00
2023-05-08T06:01:36.000Z,100.00
2023-05-08T06:04:04.725Z,100.00
2023-05-08T06:06:33.296Z,100.00
2023-05-08T06:09:01.651Z,100.00
2023-05-08T06:11:29.966Z,100.00
2023-05-08T06:13:57.934Z,100.00
2023-05-08T06:16:26.434Z,100.00
2023-05-08T06:18:54.433Z,100.00
2023-05-08T06:21:22.793Z,100.00
2023-05-08T06:23:50.854Z,100.00
2023-05-08T06:26:20.134Z,100.00
2023-05-08T06:28:49.245Z,100.00
2023-05-08T06:31:17.768Z,100.00
2023-05-08T06:33:45.828Z,100.00
2023-05-08T06:36:14.133Z,100.00
2023-05-08T06:38:42.031Z,100.00
2023-05-08T06:41:10.324Z,100.00
2023-05-08T06:43:38.248Z,100.00
2023-05-08T06:46:06.879Z,100.00
2023-05-08T06:48:34.795Z,100.00
2023-05-08T06:51:03.822Z,100.00
2023-05-08T06:53:31.721Z,100.00
2023-05-08T06:56:00.055Z,100.00
2023-05-08T06:58:27.962Z,100.00
2023-05-08T07:00:56.245Z,100.00
2023-05-08T07:03:24.341Z,100.00
2023-05-08T07:05:52.687Z,100.00
2023-05-08T07:08:20.611Z,100.00
2023-05-08T07:10:48.934Z,100.00
2023-05-08T07:13:21.898Z,100.00
2023-05-08T07:15:50.281Z,100.00
2023-05-08T07:18:18.323Z,100.00
2023-05-08T07:20:46.601Z,100.00
2023-05-08T07:23:14.888Z,100.00
2023-05-08T07:25:43.638Z,100.00
2023-05-08T07:28:11.683Z,100.00
2023-05-08T07:30:40.315Z,100.00
2023-05-08T07:33:08.480Z,100.00
2023-05-08T07:35:41.857Z,100.00
2023-05-08T07:38:09.825Z,100.00
2023-05-08T07:40:38.124Z,100.00
2023-05-08T07:43:06.128Z,100.00
2023-05-08T07:45:36.198Z,100.00
2023-05-08T07:48:04.469Z,100.00
2023-05-08T07:50:32.797Z,100.00
2023-05-08T07:53:00.782Z,100.00
2023-05-08T07:55:29.356Z,100.00
2023-05-08T07:57:57.332Z,100.00
2023-05-08T08:00:27.767Z,100.00
2023-05-08T08:02:56.186Z,100.00
2023-05-08T08:05:24.904Z,100.00
2023-05-08T08:07:52.885Z,100.00
2023-05-08T08:10:21.282Z,100.00
2023-05-08T08:12:49.208Z,100.00
2023-05-08T08:15:17.663Z,100.00
2023-05-08T08:17:45.587Z,100.00
2023-05-08T08:20:14.009Z,100.00
2023-05-08T08:22:42.049Z,100.00
2023-05-08T08:25:11.876Z,100.00
2023-05-08T08:27:40.312Z,100.00
2023-05-08T08:30:17.488Z,100.00
2023-05-08T08:32:46.789Z,100.00
2023-05-08T08:35:15.570Z,100.00
2023-05-08T08:37:44.495Z,100.00
2023-05-08T08:40:13.068Z,100.00
2023-05-08T08:42:41.240Z,100.00
2023-05-08T08:45:11.142Z,100.00
2023-05-08T08:47:43.392Z,99.47
2023-05-08T08:50:14.737Z,99.51
2023-05-08T08:53:05.305Z,97.15
2023-05-08T08:55:38.006Z,97.38
2023-05-08T08:58:12.116Z,98.26
2023-05-08T09:00:41.712Z,96.86
2023-05-08T09:03:10.519Z,95.10
2023-05-08T09:05:39.718Z,96.16
2023-05-08T09:08:07.956Z,93.97
2023-05-08T09:10:36.991Z,93.68
2023-05-08T09:13:05.580Z,92.31
2023-05-08T09:15:34.349Z,92.80
2023-05-08T09:18:03.067Z,89.43
2023-05-08T09:20:31.801Z,90.05
2023-05-08T09:23:04.844Z,87.94
2023-05-08T09:25:46.828Z,87.33
2023-05-08T09:28:23.412Z,87.37
2023-05-08T09:30:54.149Z,87.64
2023-05-08T09:33:24.303Z,88.59
2023-05-08T09:35:52.901Z,85.27
2023-05-08T09:38:38.646Z,89.32
2023-05-08T09:41:15.942Z,89.86
2023-05-08T09:43:45.598Z,88.81
2023-05-08T09:46:22.721Z,88.66
2023-05-08T09:48:52.221Z,88.05
2023-05-08T09:51:21.654Z,86.69
2023-05-08T09:53:57.392Z,85.59
2023-05-08T09:56:37.487Z,83.82
2023-05-08T09:59:22.314Z,86.46
2023-05-08T10:01:51.392Z,83.36
2023-05-08T10:04:31.932Z,83.75
2023-05-08T10:07:00.475Z,80.42
2023-05-08T10:09:38.888Z,83.31
2023-05-08T10:12:15.706Z,77.48
2023-05-08T10:14:46.377Z,77.52
2023-05-08T10:17:23.675Z,76.38
2023-05-08T10:19:58.517Z,71.98
2023-05-08T10:22:29.747Z,73.60
2023-05-08T10:24:59.033Z,72.90
2023-05-08T10:27:48.289Z,75.00
2023-05-08T10:30:18.771Z,72.98
2023-05-08T10:32:53.132Z,73.49
2023-05-08T10:35:22.556Z,70.16
2023-05-08T10:37:51.821Z,71.51
2023-05-08T10:40:21.646Z,70.64
2023-05-08T10:42:52.004Z,71.73
2023-05-08T10:45:20.159Z,69.99
2023-05-08T10:48:27.539Z,69.07
2023-05-08T10:51:28.658Z,68.20
2023-05-08T10:54:09.089Z,67.99
2023-05-08T10:56:39.466Z,69.91
2023-05-08T10:59:18.851Z,69.68
2023-05-08T11:01:50.397Z,68.17
2023-05-08T11:04:23.726Z,66.65
2023-05-08T11:06:53.444Z,65.49
2023-05-08T11:09:51.627Z,66.43
2023-05-08T11:12:31.190Z,64.38
2023-05-08T11:15:06.748Z,61.99
2023-05-08T11:17:35.027Z,61.95
2023-05-08T11:20:05.831Z,64.08
2023-05-08T11:22:34.950Z,62.75
2023-05-08T11:25:11.232Z,64.00
2023-05-08T11:27:51.112Z,61.36
2023-05-08T11:30:26.120Z,60.65
2023-05-08T11:33:19.869Z,60.61
2023-05-08T11:35:55.927Z,59.09
2023-05-08T11:38:38.388Z,56.40
2023-05-08T11:41:08.927Z,57.57
2023-05-08T11:43:46.652Z,56.06
2023-05-08T11:46:21.096Z,58.85
2023-05-08T11:48:49.903Z,58.92
2023-05-08T11:51:21.792Z,56.20
2023-05-08T11:53:49.753Z,54.31
2023-05-08T11:56:18.064Z,51.97
2023-05-08T11:58:46.003Z,50.87
2023-05-08T12:01:20.853Z,48.94
2023-05-08T12:03:48.999Z,50.07
2023-05-08T12:06:19.194Z,50.61
2023-05-08T12:08:47.233Z,53.06
2023-05-08T12:11:23.179Z,52.96
2023-05-08T12:13:52.624Z,45.70
2023-05-08T12:16:23.760Z,46.59
2023-05-08T12:18:53.124Z,47.42
2023-05-08T12:21:22.145Z,52.19
2023-05-08T12:23:50.183Z,53.42
2023-05-08T12:26:18.633Z,56.07
2023-05-08T12:28:47.579Z,55.82
2023-05-08T12:31:16.221Z,53.83
2023-05-08T12:33:44.480Z,51.37
2023-05-08T12:36:13.755Z,52.48
2023-05-08T12:38:41.753Z,52.87
2023-05-08T12:41:11.439Z,53.34
2023-05-08T12:43:39.515Z,52.09
2023-05-08T12:46:13.501Z,50.81
2023-05-08T12:48:41.470Z,49.80
2023-05-08T12:51:11.981Z,47.98
2023-05-08T12:53:39.898Z,47.82
2023-05-08T12:56:08.458Z,47.45
2023-05-08T12:58:36.541Z,47.25
2023-05-08T13:01:13.644Z,47.27
2023-05-08T13:03:42.172Z,47.28
2023-05-08T13:06:28.504Z,48.14
2023-05-08T13:08:56.640Z,48.72
2023-05-08T13:11:33.582Z,48.88
2023-05-08T13:14:01.534Z,48.06
2023-05-08T13:16:30.010Z,48.24
2023-05-08T13:18:58.046Z,48.08
2023-05-08T13:21:28.318Z,48.55
2023-05-08T13:23:57.035Z,47.92
2023-05-08T13:26:25.889Z,48.20
2023-05-08T13:28:56.160Z,49.19
2023-05-08T13:31:25.267Z,50.35
2023-05-08T13:33:53.314Z,49.75
2023-05-08T13:36:21.981Z,49.05
2023-05-08T13:38:51.896Z,49.53
2023-05-08T13:41:20.159Z,49.93
2023-05-08T13:43:48.275Z,48.51
2023-05-08T13:46:16.733Z,48.12
2023-05-08T13:48:44.758Z,47.69
2023-05-08T13:51:13.106Z,47.96
2023-05-08T13:53:41.095Z,48.74
2023-05-08T13:56:09.464Z,50.61
2023-05-08T13:58:37.646Z,51.95
2023-05-08T14:01:22.037Z,51.87
2023-05-08T14:03:55.550Z,52.17
2023-05-08T14:06:24.305Z,52.65
2023-05-08T14:08:54.333Z,52.91
2023-05-08T14:11:24.677Z,54.23
2023-05-08T14:13:52.685Z,55.98
2023-05-08T14:16:21.084Z,58.93
2023-05-08T14:18:49.233Z,57.74
2023-05-08T14:21:17.636Z,57.19
2023-05-08T14:23:45.579Z,56.14
2023-05-08T14:26:14.224Z,53.96
2023-05-08T14:28:42.217Z,55.86
2023-05-08T14:31:10.816Z,52.66
2023-05-08T14:33:39.325Z,52.75
2023-05-08T14:36:08.193Z,52.26
2023-05-08T14:38:36.213Z,51.67
2023-05-08T14:41:05.000Z,51.96
2023-05-08T14:43:33.115Z,51.72
2023-05-08T14:46:01.672Z,50.74
2023-05-08T14:48:29.765Z,49.22
2023-05-08T14:50:58.277Z,50.67
2023-05-08T14:53:26.498Z,50.76
2023-05-08T14:55:55.151Z,50.17
2023-05-08T14:58:23.378Z,49.96
2023-05-08T15:00:51.974Z,49.98
2023-05-08T15:03:20.122Z,49.76
2023-05-08T15:05:48.576Z,49.58
2023-05-08T15:08:16.813Z,50.59
2023-05-08T15:10:45.164Z,51.18
2023-05-08T15:13:13.296Z,50.32
2023-05-08T15:15:42.192Z,50.91
2023-05-08T15:18:10.180Z,51.23
2023-05-08T15:20:38.873Z,50.85
2023-05-08T15:23:06.868Z,51.30
2023-05-08T15:25:35.333Z,50.54
2023-05-08T15:28:03.582Z,50.36
2023-05-08T15:30:31.956Z,51.86
2023-05-08T15:33:00.200Z,50.30
2023-05-08T15:35:28.680Z,49.43
2023-05-08T15:37:56.754Z,49.57
2023-05-08T15:40:25.254Z,49.25
2023-05-08T15:42:53.283Z,48.98
2023-05-08T15:45:21.666Z,48.46
2023-05-08T15:47:49.776Z,48.76
2023-05-08T15:50:18.236Z,48.79
2023-05-08T15:52:46.505Z,49.11
2023-05-08T15:55:15.220Z,48.41
2023-05-08T15:57:43.512Z,49.32
2023-05-08T16:00:12.529Z,49.16
2023-05-08T16:02:40.671Z,49.15
2023-05-08T16:05:10.035Z,49.29
2023-05-08T16:07:38.045Z,49.85
2023-05-08T16:10:07.460Z,48.41
2023-05-08T16:12:35.622Z,48.85
2023-05-08T16:15:04.249Z,49.02
2023-05-08T16:17:32.852Z,49.32
2023-05-08T16:20:01.909Z,49.38
2023-05-08T16:22:31.094Z,50.00
2023-05-08T16:24:59.360Z,49.79
2023-05-08T16:27:28.587Z,50.08
2023-05-08T16:29:56.834Z,50.24
2023-05-08T16:32:25.022Z,49.90
2023-05-08T16:34:53.349Z,50.13
2023-05-08T16:37:21.279Z,49.57
2023-05-08T16:39:49.758Z,49.46
2023-05-08T16:42:19.071Z,49.50
2023-05-08T16:44:47.749Z,49.56
2023-05-08T16:47:15.746Z,50.19
2023-05-08T16:49:45.434Z,49.44
2023-05-08T16:52:13.421Z,49.50
2023-05-08T16:54:41.694Z,49.54
2023-05-08T16:57:10.193Z,49.55
2023-05-08T16:59:38.484Z,49.60
2023-05-08T17:02:06.404Z,49.99
2023-05-08T17:04:34.836Z,50.14
2023-05-08T17:07:05.223Z,50.68
2023-05-08T17:09:34.466Z,49.72
2023-05-08T17:12:03.067Z,49.29
2023-05-08T17:14:31.399Z,49.37
2023-05-08T17:16:59.450Z,49.67
2023-05-08T17:19:27.731Z,50.81
2023-05-08T17:21:57.558Z,51.30
2023-05-08T17:24:30.054Z,51.41
2023-05-08T17:26:58.268Z,51.83
2023-05-08T17:29:26.642Z,52.49
2023-05-08T17:31:54.838Z,52.70
2023-05-08T17:34:23.356Z,53.12
2023-05-08T17:36:52.438Z,53.83
2023-05-08T17:39:22.561Z,54.12
2023-05-08T17:41:51.944Z,54.31
2023-05-08T17:44:20.568Z,54.23
2023-05-08T17:46:48.457Z,55.01
2023-05-08T17:49:19.443Z,54.87
2023-05-08T17:51:48.269Z,55.33
2023-05-08T17:54:16.801Z,54.68
2023-05-08T17:56:45.229Z,55.31
2023-05-08T17:59:13.420Z,55.33
2023-05-08T18:01:41.547Z,55.24
2023-05-08T18:04:10.164Z,55.96
2023-05-08T18:06:38.197Z,55.33
2023-05-08T18:09:06.678Z,55.71
2023-05-08T18:11:34.931Z,56.39
2023-05-08T18:14:03.210Z,56.28
2023-05-08T18:16:31.416Z,56.25
2023-05-08T18:18:59.707Z,56.86
2023-05-08T18:21:29.127Z,56.82
2023-05-08T18:23:57.370Z,57.05
2023-05-08T18:26:25.371Z,56.92
2023-05-08T18:28:53.626Z,56.80
2023-05-08T18:31:21.722Z,57.81
2023-05-08T18:33:50.092Z,57.84
2023-05-08T18:36:18.091Z,57.97
2023-05-08T18:38:46.520Z,57.72
2023-05-08T18:41:14.811Z,58.33
2023-05-08T18:43:43.206Z,58.93
2023-05-08T18:46:12.630Z,58.71
2023-05-08T18:48:41.702Z,60.35
2023-05-08T18:51:10.394Z,59.99
2023-05-08T18:53:39.148Z,59.89
2023-05-08T18:56:07.441Z,59.61
2023-05-08T18:58:35.732Z,60.64
2023-05-08T19:01:03.962Z,60.86
2023-05-08T19:03:32.926Z,61.13
2023-05-08T19:06:01.202Z,60.78
2023-05-08T19:08:29.592Z,61.77
2023-05-08T19:10:57.645Z,61.73
2023-05-08T19:13:26.157Z,61.88
2023-05-08T19:15:54.533Z,62.04
2023-05-08T19:18:23.046Z,60.91
2023-05-08T19:20:51.284Z,62.18
2023-05-08T19:23:19.656Z,62.24
2023-05-08T19:25:47.690Z,62.66
2023-05-08T19:28:16.525Z,63.19
2023-05-08T19:30:44.620Z,63.21
2023-05-08T19:33:13.054Z,63.62
2023-05-08T19:35:41.030Z,62.85
2023-05-08T19:38:09.412Z,63.45
2023-05-08T19:40:51.976Z,62.37
2023-05-08T19:43:25.893Z,62.51
2023-05-08T19:45:54.960Z,62.70
2023-05-08T19:48:25.010Z,62.75
2023-05-08T19:50:55.200Z,62.93
2023-05-08T19:53:25.527Z,63.15
2023-05-08T19:55:55.327Z,62.57
2023-05-08T19:58:25.118Z,61.60
2023-05-08T20:00:53.364Z,61.56
2023-05-08T20:03:21.843Z,62.09
2023-05-08T20:05:56.068Z,62.02
2023-05-08T20:08:30.206Z,61.76
2023-05-08T20:11:03.775Z,62.12
2023-05-08T20:13:32.368Z,61.57
2023-05-08T20:16:00.983Z,61.70
2023-05-08T20:18:30.230Z,61.57
2023-05-08T20:20:59.458Z,61.76
2023-05-08T20:23:30.128Z,61.90
2023-05-08T20:25:59.556Z,61.23
2023-05-08T20:28:29.500Z,61.68
2023-05-08T20:30:59.075Z,61.99
2023-05-08T20:33:28.196Z,62.16
2023-05-08T20:35:56.592Z,61.63
2023-05-08T20:38:24.906Z,61.09
2023-05-08T20:40:55.182Z,61.65
2023-05-08T20:43:26.132Z,61.56
2023-05-08T20:45:54.218Z,62.21
2023-05-08T20:48:23.259Z,62.61
2023-05-08T20:50:51.314Z,62.21
2023-05-08T20:53:19.664Z,62.20
2023-05-08T20:55:47.693Z,62.83
2023-05-08T20:58:16.313Z,63.18
2023-05-08T21:00:44.417Z,62.85
2023-05-08T21:03:12.721Z,63.37
2023-05-08T21:05:41.020Z,63.25
2023-05-08T21:08:09.475Z,63.15
2023-05-08T21:10:37.473Z,63.25
2023-05-08T21:13:06.051Z,63.82
2023-05-08T21:15:35.372Z,64.42
2023-05-08T21:18:03.905Z,64.42
2023-05-08T21:20:34.197Z,63.81
2023-05-08T21:23:02.479Z,65.27
2023-05-08T21:25:31.043Z,65.43
2023-05-08T21:27:59.467Z,65.73
2023-05-08T21:30:27.480Z,65.38
2023-05-08T21:32:55.910Z,66.44
2023-05-08T21:35:24.072Z,66.75
2023-05-08T21:37:54.503Z,67.00
2023-05-08T21:40:23.279Z,68.22
2023-05-08T21:42:51.592Z,67.71
2023-05-08T21:45:19.567Z,66.73
2023-05-08T21:47:47.948Z,67.88
2023-05-08T21:50:16.007Z,66.83
2023-05-08T21:52:44.368Z,67.62
2023-05-08T21:55:12.650Z,68.31
2023-05-08T21:57:41.112Z,69.40
2023-05-08T22:00:09.890Z,72.60
2023-05-08T22:02:48.694Z,74.90
2023-05-08T22:05:16.926Z,76.47
2023-05-08T22:07:45.620Z,77.49
2023-05-08T22:10:14.150Z,77.54
2023-05-08T22:12:42.637Z,77.53
2023-05-08T22:15:25.606Z,77.57
2023-05-08T22:17:58.293Z,78.32
2023-05-08T22:20:26.358Z,78.78
2023-05-08T22:22:54.792Z,77.41
2023-05-08T22:25:22.869Z,79.16
2023-05-08T22:27:51.204Z,80.58
2023-05-08T22:30:19.295Z,81.28
2023-05-08T22:32:55.545Z,81.23
2023-05-08T22:35:25.520Z,79.59
2023-05-08T22:37:54.642Z,76.02
2023-05-08T22:40:22.969Z,73.37
2023-05-08T22:42:52.257Z,71.98
2023-05-08T22:45:20.604Z,69.91
2023-05-08T22:47:49.266Z,69.21
2023-05-08T22:50:17.453Z,68.97
2023-05-08T22:52:46.166Z,69.07
2023-05-08T22:55:16.125Z,68.39
2023-05-08T22:57:45.173Z,68.64
2023-05-08T23:00:13.546Z,68.10
2023-05-08T23:02:42.008Z,67.64
2023-05-08T23:05:10.145Z,67.80
2023-05-08T23:07:38.471Z,67.46
2023-05-08T23:10:07.198Z,67.73
2023-05-08T23:12:35.605Z,68.84
2023-05-08T23:15:04.854Z,68.49
2023-05-08T23:17:33.231Z,69.01
2023-05-08T23:20:01.418Z,69.48
2023-05-08T23:22:29.807Z,69.55
2023-05-08T23:24:57.777Z,69.45
2023-05-08T23:27:26.180Z,70.13
2023-05-08T23:29:54.144Z,70.11
2023-05-08T23:32:22.464Z,70.35
2023-05-08T23:34:50.452Z,70.77
2023-05-08T23:37:18.775Z,71.77
2023-05-08T23:39:46.755Z,71.14
2023-05-08T23:42:15.145Z,71.51
2023-05-08T23:44:43.193Z,71.27
2023-05-08T23:47:12.003Z,71.96
2023-05-08T23:49:39.983Z,71.63
2023-05-08T23:52:10.426Z,71.49
2023-05-08T23:54:38.445Z,71.77
2023-05-08T23:57:07.282Z,70.96
2023-05-08T23:59:35.551Z,72.44
